Terminal Aerodrome Forecast
Issued by NWS Tuscon, AZ

Home | Current Version | Previous Version | Text Only | Print | Product List | Glossary On
Versions: 1 2 3 4 5 6 7 8 9 10 11 12 13
000
FTUS45 KTWC 240402 AAA
TAFTUS
TAF AMD
KTUS 240402Z 2404/2424 24014G24KT P6SM VCSH BKN070
     FM240700 27010KT P6SM VCSH SCT040 OVC060
     FM241200 24005KT P6SM FEW050 BKN070
     FM241800 28011KT P6SM SCT070=

USA.gov is the U.S. government's official web portal to all federal, state and local government web resources and services.